空港情報

日本の空港の気象及び、管制情報です。
気象情報はより詳細な情報が取得できる「AVIATION WEATER CENTER」 から取得しているため、VATSIMの気象情報と若干のタイムラグが生じることがあります。

VRCのフィールド設定用空港一覧はこちらをご覧ください。

RJCG Sapporo Control

RJCW / Wakkanai

NO RADAR

RADIO

08/26 2200x45

民間 civil

過去5時間に発表されたMETARがありません。

RJER / Rishiri

NO RADAR

REMOTE

25/07 1800x45

民間 civil

過去5時間に発表されたMETARがありません。

RJEB / Monbetsu

NO RADAR

REMOTE

32/14 2000x45

民間 civil

過去5時間に発表されたMETARがありません。

RJCM / Memanbetsu
VMC

NO RADAR

TOWER

36/18 2500x45

民間 civil

9999

150@3KT

29.65

RJCM 271100Z 15003KT 9999 FEW020 SCT050 BKN060 M13/M15 Q1004

RJEC / Asahikawa
VMC

NO RADAR

TOWER

34/16 2500x60

民間 civil

9999

170@3KT

29.62

RJEC 271100Z 17003KT 9999 FEW010 SCT050 M15/M17 Q1003

RJCN / Nakashibetsu

NO RADAR

RADIO

08/26 2000x45

民間 civil

過去5時間に発表されたMETARがありません。

RJCK / Kushiro
VMC

NO RADAR

TOWER

17/35 2500x45

民間 civil

9999

350@4KT

29.65

RJCK 271100Z 35004KT 9999 FEW030 M08/M14 Q1004

RJCO / Sapporo
VMC

RJCO_APP

TOWER

14/32 1500x30

共用 dual

9999

090@1KT

29.70

RJCO 271100Z 09001KT 9999 FEW010 SCT050 M12/M13 Q1006

RJCJ / Chitose

RJCC_APP

TOWER

36R/18L 3000x60
36L/18R 2700x45

自衛隊 military

過去5時間に発表されたMETARがありません。

RJCC / NewChitose
VMC

RJCC_APP

TOWER

01L/19R 3000x60
01R/19L 3000x60

民間 civil

9999

120@1KT

29.62

RJCC 271500Z 12001KT 9999 FEW015 SCT050 M15/M17 Q1003 RMK 1ST015 4SC050 A2963

RJCB / Obihiro
VMC

NO RADAR

TOWER

35/17 2500x45

民間 civil

9999

160@2KT

29.62

RJCB 271100Z 16002KT 9999 FEW040 M18/M22 Q1003

RJEO / Okushiri

NO RADAR

REMOTE

12/30 1500x45

民間 civil

過去5時間に発表されたMETARがありません。

RJCH / Hakodate
VMC

RJCH_APP

TOWER

12/30 3000x45

民間 civil

9999

020@6KT

29.68

RJCH 271100Z 02006KT 9999 FEW040 M09/M12 Q1005

RJSA / Aomori
VMC

NO RADAR

TOWER

24/06 3000x60

民間 civil

9999

210@7KT

29.65

RJSA 271200Z 21007KT 9999 -SHSN FEW005 SCT035 BKN060 M08/M09 Q1004

RJSO / Ominato
IMC

RJSM_APP

TOWER

04/22 600x45

自衛隊 military

3100

270@4KT

29.65

RJSO 271517Z 27004KT 3100 -SHSN FEW010 BKN020 OVC040 M05/M05 Q1004 RMK 2ST010 5CU020 8CU040 A2966

RJSM / Misawa
VMC

RJSM_APP

TOWER

10/28 3050x45

共用 dual

9999

300@6KT

29.65

RJSM 271500Z 30006KT 9999 R28/0800VP1800U MIFG SCT002 M10/M11 Q1004

RJSH / Hachinohe

RJSM_APP

TOWER

25/07 2250x45

自衛隊 military

過去5時間に発表されたMETARがありません。

RJSK / Akita
VMC

NO RADAR

TOWER

10/28 2500x60

民間 civil

9999

050@2KT

29.70

RJSK 271200Z 05002KT 9999 FEW020 SCT030 BKN040 M03/M05 Q1006

RJSI / Hanamaki

NO RADAR

RADIO

20/02 2500x45

民間 civil

過去5時間に発表されたMETARがありません。

RJSR / Odate-Noshiro

NO RADAR

REMOTE

11/29 2000x45

民間 civil

過去5時間に発表されたMETARがありません。

RJTG Tokyo Control

RJSY / Shonai
VMC

NO RADAR

RADIO

09/27 2000x45

民間 civil

9999

000@2KT

29.73

RJSY 271200Z VRB02KT 9999 FEW015 BKN070 M02/M06 Q1007

RJSC / Yamagata

NO RADAR

RADIO

01/19 2000x45

民間 civil

過去5時間に発表されたMETARがありません。

RJST / Matsushima

RJSS_APP

TOWER

07/25 2071x46
15/33 1500x46

自衛隊 military

過去5時間に発表されたMETARがありません。

RJSS / Sendai
VMC

RJSS_APP

TOWER

27/09 3000x45
12/30 1200x45

民間 civil

9999

330@3KT

29.68

RJSS 271200Z 33003KT 300V020 9999 FEW010 BKN040 BKN070 M01/M03 Q1005

RJSD / Sado

NO RADAR

REMOTE

10/28 890x25

民間 civil

過去5時間に発表されたMETARがありません。

RJSN / Niigata
IMC

RJSN_APP

TOWER

10/28 2500x45
04/22 1314x45

民間 civil

0900

010@14KT

29.76

RJSN 271226Z 01014KT 340V040 0900 R28/P2000N SHSN VV007 00/M02 Q1008 RMK A2977

RJSF / Fukushima
IMC

NO RADAR

RADIO

01/19 2500x60

民間 civil

0500

010@14KT

29.56

RJSF 271116Z 01014KT 0500 R01/1600N SN FEW002 BKN009 BKN015 M03/M04 Q1001 RMK 1ST002 6ST009 7SC015 A2958

RJAH / Ibaraki/Hyakuri
VMC

RJAH_APP

TOWER

03L/21R 2700x45
03R/21L 2700x45

共用 dual

9999

010@14KT

29.56

RJAH 271500Z 01014KT 9999 FEW008 BKN030 01/M03 Q1001

RJTT / Tokyo
VMC

RJTT_APP

TOWER

34LR/16RL 3000x60
04/22&05/23 2500x60

民間 civil

9999

330@21KT

29.56

RJTT 271500Z 33021KT 9999 FEW030 SCT050 BKN070 03/M05 Q1001 NOSIG RMK 1CU030 3SC050 6AC070 A2957

RJAA / Narita
VMC

RJTT_APP

TOWER

34L/16R 4000x60
34R/16L 2500x60

民間 civil

9999

320@13KT

29.56

RJAA 271515Z AUTO 32013KT 9999 FEW008 SCT012 BKN032 01/00 Q1001 RMK A2957

RJTL / Shimofusa
VMC

RJTT_APP

TOWER

19/01 2250x45

自衛隊 military

9999

340@4KT

29.56

RJTL 271140Z 34004KT 310V030 9999 -RASN FEW007 SCT009 BKN020 03/02 Q1001 RMK 1ST007 4ST009 7SC020 A2956

RJTE / Tateyama
VMC

RJTT_APP

TOWER

09/27 300x45

自衛隊 military

9999

360@17G27KT

29.53

RJTE 271405Z 36017G27KT 9999 FEW012 BKN020 05/02 Q1000 RMK 2ST012 6SC020 A2953

RJTO / Oshima

NO RADAR

RADIO

03/21 1800x45

民間 civil

過去5時間に発表されたMETARがありません。

RJTK / Kisarazu

NO RADAR

TOWER

02/20 1830x45

自衛隊 military

過去5時間に発表されたMETARがありません。

RJAN / Niijima

NO RADAR

REMOTE

11/29 800x25

自衛隊 military

過去5時間に発表されたMETARがありません。

RJAZ / Kozushima

NO RADAR

REMOTE

11/29 800x25

民間 civil

過去5時間に発表されたMETARがありません。

RJTH / Hachijojima

NO RADAR

RADIO

26/08 2000x45

民間 civil

過去5時間に発表されたMETARがありません。

RJTF / Chofu

NO RADAR

Flight Service

35/17 800x30

民間 civil

過去5時間に発表されたMETARがありません。

RJTQ / Miyake

NO RADAR

REMOTE

02/20 1200x30

民間 civil

過去5時間に発表されたMETARがありません。

RJTC / Tachikawa

NO RADAR

TOWER

01/19 900x45

自衛隊 military

過去5時間に発表されたMETARがありません。

RJTA / Atsugi

NO RADAR

TOWER

01/19 2438x45

自衛隊 military

過去5時間に発表されたMETARがありません。

RJTU / Utsunomiya

RJTY_APP

TOWER

01/19 1700x45

自衛隊 military

過去5時間に発表されたMETARがありません。

RJTJ / Iruma

RJTY_APP

TOWER

17/35 2000x45

自衛隊 military

過去5時間に発表されたMETARがありません。

RJTY / Yokota
VMC

RJTY_APP

TOWER

18/36 3353x60

自衛隊 military

9999

010@15KT

29.59

RJTY 271455Z AUTO 01015KT 10SM CLR 01/M07 A2959 RMK AO2 SLP027 60000 T00081072 400531012 58002 $

RJAF / Matsumoto

NO RADAR

RADIO

18/36 2000x45

民間 civil

過去5時間に発表されたMETARがありません。

RJNS / Shizuoka
VMC

NO RADAR

RADIO

30/12 2500x60

民間 civil

9999

270@10KT

29.56

RJNS 271200Z 27010KT 9999 FEW005 01/01 Q1001

RJNY / Yaizu-Shizuhama
VMC

NO RADAR

TOWER

27/09 1500x45

自衛隊 military

9999

260@10KT

29.56

RJNY 271351Z 26010KT 9999 FEW015 01/M01 Q1001 RMK 1CU015 A2957

RJNH / Hamamatsu

RJNH_APP

TOWER

09/27 2550x60

自衛隊 military

過去5時間に発表されたMETARがありません。

RJGG / Chubu
VMC

RJGG_APP

TOWER

36/18 3500x60

民間 civil

9999

310@15KT

29.68

RJGG 271500Z AUTO 31015KT 9999 FEW047 SCT048 BKN050 04/M00 Q1005 NOSIG

RJNA / Nagoya

RJGG_APP

TOWER

34/16 2740x45

民間 civil

過去5時間に発表されたMETARがありません。

RJNG / Gifu
VMC

RJGG_APP

TOWER

28/10 2710x46

自衛隊 military

8000

290@9KT

29.68

RJNG 271334Z 29009KT 8000 FEW005 SCT008 00/M00 Q1005 RMK 1ST005 3ST008 A2968

RJOE / Akeno

RJOE_APP

TOWER

13/31 500x30
04/22 500x30

自衛隊 military

過去5時間に発表されたMETARがありません。

RJNK / Komatsu
IMC

RJNK_APP

TOWER

06/24 2700x45

共用 dual

0600

070@9KT

29.79

RJNK 271500Z 07009KT 0600 R06/P1800N SHGSSN VV003 M01/M02 Q1009

RJNW / Noto

NO RADAR

RADIO

25/07 2000x45

民間 civil

過去5時間に発表されたMETARがありません。

RJNT / Toyama
IMC

NO RADAR

TOWER

20/02 2000x45

民間 civil

1800

360@15KT

29.76

RJNT 271200Z 36015KT 1800 -SHSN VV009 M00/M01 Q1008

RJNF / Fukui

NO RADAR

REMOTE

18/36 1200x30

民間 civil

過去5時間に発表されたMETARがありません。

RJBD / Nanki-Shirahama

NO RADAR

RADIO

15/33 2000x45

民間 civil

過去5時間に発表されたMETARがありません。

RJOY / Yao

RJBB_APP

TOWER

27/09 1490x45
13/31 1200x30

民間 civil

過去5時間に発表されたMETARがありません。

RJOO / Osaka
VMC

RJBB_APP

TOWER

32L/14R 3000x60
32R/14L 1830x45

民間 civil

0000

290@5KT

0.00

RJOO 271500Z AUTO 29005KT 250V330 //// R32R///// R32L///// // SCT035 SCT038 BKN043 ///// Q//// RMK A////

RJOB / Okayama
VMC

RJBB_APP

TOWER

07/25 3000x45

民間 civil

9999

280@13KT

29.79

RJOB 271200Z 28013KT 250V320 9999 FEW025 M01/M05 Q1009

RJBB / Kansai
VMC

RJBB_APP

TOWER

06R/24L 3500x60
06L/24R 4000x60

民間 civil

9999

290@25KT

29.79

RJBB 271500Z 29025KT 9999 -SHRASN FEW015 BKN030 04/M00 Q1009 TEMPO 29034G46KT

RJBE / Kobe
VMC

RJBB_APP

TOWER

09/27 2500x60

民間 civil

9999

280@22KT

29.76

RJBE 271300Z 28022KT 9999 FEW020 03/M03 Q1008

RJBT / Tajima

NO RADAR

REMOTE

01/19 1200x30

民間 civil

過去5時間に発表されたMETARがありません。

RJOR / Tottori
VMC

NO RADAR

RADIO

10/28 2000x45

民間 civil

5000

270@23G35KT

29.73

RJOR 271212Z 27023G35KT 5000 R10/1600VP2000N -SHSN FEW002 SCT010 BKN020 02/01 Q1007 RMK 1ST002 3CU010 5CU020 A2976 P/FR

RJNO / Oki

NO RADAR

REMOTE

07/25 2000x45

民間 civil

過去5時間に発表されたMETARがありません。

RJOH / Miho
VMC

RJOH_APP

TOWER

25/07 2500x45

共用 dual

8000

280@13KT

29.88

RJOH 271500Z 28013KT 8000 -SHSN FEW008 SCT015 BKN030 02/M03 Q1012

RJOC / Izumo
VMC

RJOH_APP

RADIO

07/25 2000x45

共用 dual

9999

300@23G34KT

29.91

RJOC 271100Z 30023G34KT 9999 -SHSN FEW008 SCT020 BKN030 02/M02 Q1013

RJDG Fukuoka Control

RJOT / Takamatsu
VMC

RJBB_APP

TOWER

26/08 2500x60

民間 civil

9999

280@15G25KT

29.85

RJOT 271222Z 28015G25KT 9999 FEW025 M00/M05 Q1011 RMK 1CU025 A2987

RJOK / Kochi
VMC

RJBB_APP

TOWER

32/14 2500x45

民間 civil

9999

290@11KT

29.85

RJOK 271100Z 29011KT 9999 VCSH FEW015 SCT050 02/M03 Q1011

RJOS / Tokushima
VMC

RJOS_APP

TOWER

29/11 2500x45

共用 dual

9999

290@19G29KT

29.79

RJOS 271502Z 29019G29KT 9999 FEW030 02/M06 Q1009 RMK 1CU030 A2982

RJOA / Hiroshima
IMC

RJOA_APP

TOWER

10/28 3000x60

民間 civil

2000

280@9KT

29.88

RJOA 271315Z 28009KT 2000 -SHSN FEW005 SCT010 BKN015 M03/M03 Q1012 RMK 1ST005 3CU010 5CU015 A2990

RJBH / Hiroshimanishi

NO RADAR

Flight Service

04/22 1800x45

民間 civil

過去5時間に発表されたMETARがありません。

RJOI / Iwakuni
VMC

RJOI_APP

TOWER

02/20 2440x60

共用 dual

9999

260@10KT

29.99

RJOI 271456Z 26010KT 9999 FEW020 SCT035 00/M04 A2999 RMK AO2 SHSNE1454 SLP156 P0000 60000 T00001044 400720000 50000

RJOM / Matsuyama
VMC

RJOI_APP

TOWER

14/32 2500x45

民間 civil

9999

300@19KT

29.97

RJOM 271200Z 30019KT 9999 FEW030 SCT045 03/M05 Q1015

RJOZ / Ozuki
VMC

RJFZ_APP

TOWER

35/17 1201x61
12/30 899x46

自衛隊 military

9999

320@18G28KT

30.00

RJOZ 271224Z 32018G28KT 9999 -SHSN FEW020 BKN050 BKN070 03/M08 Q1016 RMK 1CU020 5SC050 7AC070 A3002

RJOF / Hofu
VMC

RJFZ_APP

TOWER

30/12 1180x60
01/19 1480x45

自衛隊 military

9999

290@10KT

30.00

RJOF 271229Z 29010KT 9999 FEW015 SCT040 00/M10 Q1016 RMK 1CU015 3CU040 A3001

RJDC / Yamaguchi-Ube
VMC

RJFZ_APP

RADIO

07/25 2500x45

民間 civil

9999

360@8KT

30.00

RJDC 271200Z 36008KT 300V040 9999 VCSH FEW020 BKN045 02/M06 Q1016

RJFR / Kitakyushu
VMC

RJFZ_APP

TOWER

18/36 2500x60

民間 civil

9999

310@15G25KT

30.03

RJFR 271519Z 31015G25KT 9999 FEW025 SCT045 BKN050 02/M07 Q1017 RMK 1CU025 3CU045 5CU050 A3003

RJFZ / Tsuiki

RJFZ_APP

TOWER

25/07 2399x46

自衛隊 military

過去5時間に発表されたMETARがありません。

RJOW / Iwami

NO RADAR

REMOTE

11/29 2000x45

民間 civil

過去5時間に発表されたMETARがありません。

RJDT / Tsushima
VMC

NO RADAR

REMOTE

32/14 1900x45

民間 civil

9999

300@13KT

30.06

RJDT 271100Z 30013KT 250V350 CAVOK 01/M13 Q1018

RJFF / Fukuoka
VMC

RJFF_APP

TOWER

16/34 2800x60

民間 civil

9999

310@13KT

30.06

RJFF 271500Z AUTO 31013KT 270V330 9999 NSC 02/M08 Q1018 TEMPO 31018G28KT RMK A3006

RJFS / Saga
VMC

RJFF_APP

RADIO

29/11 2000x45

民間 civil

9999

310@7KT

30.06

RJFS 271400Z 31007KT 9999 FEW030 SCT050 BKN060 01/M05 Q1018

RJFA / Ashiya

RJFF_APP

TOWER

12/30 1640x46

自衛隊 military

過去5時間に発表されたMETARがありません。

RJDB / Iki
VMC

RJFF_APP

REMOTE

20/02 1200x30

民間 civil

9999

320@10KT

30.06

RJDB 271500Z AUTO 32010KT 280V360 9999 NSC 01/M09 Q1018

RJFO / Oita
VMC

RJFO_APP

TOWER

01/19 3000x45

民間 civil

9999

000@1KT

30.00

RJFO 271300Z VRB01KT 9999 -SHSN FEW010 SCT020 BKN035 02/M05 Q1016

RJFU / Nagasaki
VMC

RJFU_APP

TOWER

32/14 3000x60

民間 civil

9999

300@24KT

30.09

RJFU 271200Z 30024KT 9999 FEW040 SCT050 BKN060 03/M08 Q1019

RJDU / Omura

RJFU_APP

TOWER

18/36 1200x30

自衛隊 military

過去5時間に発表されたMETARがありません。

RJFE / Fukue

NO RADAR

RADIO

03/21 2000x45

民間 civil

過去5時間に発表されたMETARがありません。

RJDO / Ojika

NO RADAR

REMOTE

03/21 800x30

民間 civil

過去5時間に発表されたMETARがありません。

RJDK / Kamigoto

NO RADAR

REMOTE

17/35 800x30

民間 civil

過去5時間に発表されたMETARがありません。

RJDA / Amakusa

NO RADAR

Flight Service

31/13 1000x30

民間 civil

過去5時間に発表されたMETARがありません。

RJFT / Kumamoto
VMC

RJFT_APP

TOWER

07/25 3000x45

民間 civil

9999

250@3KT

30.03

RJFT 271200Z 25003KT 190V310 9999 SCT050 M02/M04 Q1017

RJFN / Nyutabaru

RJFM_APP

TOWER

28/10 2701x46

自衛隊 military

過去5時間に発表されたMETARがありません。

RJFM / Miyazaki
VMC

RJFM_APP

TOWER

27/09 2500x45

民間 civil

9999

290@13KT

30.00

RJFM 271200Z 29013KT 9999 FEW020 03/M06 Q1016

RJFK / Kagoshima
VMC

RJFK_APP

TOWER

34/16 3000x45

民間 civil

9999

330@15KT

30.00

RJFK 271200Z 33015KT 9999 FEW030 SCT035 00/M05 Q1016 RMK 1CU030 3CU035 A3001

RJFY / Kanoya

RJFY_APP

TOWER

26L/08R 2250x45
26R/08L 1200x40

自衛隊 military

過去5時間に発表されたMETARがありません。

RJFG / Tanegashima

NO RADAR

RADIO

31/13 2000x45

民間 civil

過去5時間に発表されたMETARがありません。

RJFC / Yakushima

NO RADAR

REMOTE

14/32 1500x45

民間 civil

過去5時間に発表されたMETARがありません。

RJBG Kobe Control

ROAH / Naha
VMC

ROAH_APP

TOWER

36/18 3000x45

共用 dual

9999

340@28G38KT

30.12

ROAH 271516Z AUTO 34028G38KT 9999 FEW040 SCT050 BKN060 12/06 Q1020 RMK A3013

RORA / Aguni

ROAH_APP

REMOTE

01/19 800x25

民間 civil

過去5時間に発表されたMETARがありません。

ROKJ / Kumejima

ROAH_APP

REMOTE

03/21 2000x45

民間 civil

過去5時間に発表されたMETARがありません。

RODN / Kadena
VMC

ROAH_APP

TOWER

05L/23R 3688x91
05R/23L 3688x61

自衛隊 military

9999

330@15G25KT

30.09

RODN 271502Z AUTO 33015G25KT 10SM -RA SCT037 BKN050 BKN055 11/04 A3009 RMK AO2 RAB02 SLP198 $

ROTM / Futenma

ROAH_APP

TOWER

06/24 2740x45

自衛隊 military

過去5時間に発表されたMETARがありません。

RORS / Shimojishima

RORS_APP

TOWER

17/35 3000x60

民間 civil

過去5時間に発表されたMETARがありません。

ROMY / Miyako
VMC

RORS_APP

TOWER

04/22 2000x45

民間 civil

9999

360@19G35KT

30.18

ROMY 271100Z 36019G35KT 9999 -SHRA BKN033 BKN038 13/05 Q1022

ROIG / New Ishigaki
VMC

RORS_APP

TOWER

22/04 2000x45

民間 civil

9999

010@16KT

30.18

ROIG 271500Z AUTO 01016KT 9999 -RA BKN036 OVC043 11/06 Q1022

RORT / Tarama

RORS_APP

REMOTE

36/18 1500x45

民間 civil

過去5時間に発表されたMETARがありません。

RJKA / Amami
VMC

NO RADAR

RADIO

03/21 2000x45

民間 civil

9999

330@12G23KT

30.03

RJKA 271500Z AUTO 33012G23KT 300V360 9999 FEW043 SCT050 BKN060 09/02 Q1017

RJKI / Kikai
VMC

NO RADAR

REMOTE

07/25 1200x30

民間 civil

9999

350@22KT

30.03

RJKI 271500Z AUTO 35022KT 9999 FEW041 11/03 Q1017

RJKN / Tokunoshima

NO RADAR

REMOTE

19/01 2000x45

民間 civil

過去5時間に発表されたMETARがありません。

RJKB / Okierabu

NO RADAR

REMOTE

04/22 1350x45

民間 civil

過去5時間に発表されたMETARがありません。

RORY / Yoron
VMC

NO RADAR

REMOTE

32/14 1320x30

民間 civil

9999

350@25G37KT

30.09

RORY 271500Z AUTO 35025G37KT 9999 FEW026 SCT031 BKN050 11/07 Q1019

RORK / Kitadaito
VMC

NO RADAR

REMOTE

03/21 1500x45

民間 civil

9999

330@18KT

29.97

RORK 271500Z AUTO 33018KT 9999 SCT036 BKN043 BKN050 16/09 Q1015

ROMD / Minami-daito
VMC

NO RADAR

REMOTE

02/20 1500x45

民間 civil

9999

330@17G27KT

29.97

ROMD 271500Z AUTO 33017G27KT 300V360 9999 FEW034 SCT047 OVC060 15/08 Q1015

ROYN / Yonaguni
VMC

NO RADAR

REMOTE

26/08 2000x45

民間 civil

6000

360@28KT

30.24

ROYN 271500Z AUTO 36028KT 6000 -RA FEW041 BKN050 OVC080 13/05 Q1024

RORH / Hateruma

NO RADAR

REMOTE

02/20 800x25

民間 civil

過去5時間に発表されたMETARがありません。

ROKR / Kerama

NO RADAR

REMOTE

02/20 800x25

民間 civil

過去5時間に発表されたMETARがありません。